Overview Statistics Trail Chart Weather Telemetry Raw packets
 

This is the latest recevied weather packets stored in our database for station/object KB8TTR. If no packets are shown the sender has not sent any weather packets the latest 10 day(s).

<< 89 90 91 92 93 94 95 >>
Time Temp. Humidity Pressure Rain* Wind** Luminosity Snow
1787957363 22.78° C 62% 1022.4 hPa 0 mm - 66 W/m² -
1787957061 22.78° C 61% 1022.3 hPa 0 mm - 47 W/m² -
1787956761 23.33° C 60% 1022.3 hPa 0 mm - 48 W/m² -
1787956457 23.33° C 61% 1022.5 hPa 0 mm - 48 W/m² -
1787956152 23.33° C 59% 1022.3 hPa 0 mm - 49 W/m² -
1787955846 23.89° C 58% 1022.4 hPa 0 mm - 50 W/m² -
1787955542 23.89° C 54% 1022.3 hPa 0 mm - 52 W/m² -
1787955242 23.89° C 53% 1022.3 hPa 0 mm - 53 W/m² -
1787954937 23.33° C 52% 1022.5 hPa 0 mm - 54 W/m² -
1787954633 23.89° C 53% 1022.5 hPa 0 mm - 55 W/m² -
1787954332 23.89° C 52% 1022.5 hPa 0 mm - 56 W/m² -
1787954028 23.89° C 52% 1022.4 hPa 0 mm - 60 W/m² -
1787953726 23.89° C 54% 1022.3 hPa 0 mm - 65 W/m² -
1787953421 23.89° C 53% 1022.5 hPa 0 mm - 58 W/m² -
1787953119 23.89° C 54% 1022.5 hPa 0 mm - 59 W/m² -
1787952819 23.89° C 54% 1022.5 hPa 0 mm - 61 W/m² -
1787952519 23.89° C 54% 1022.4 hPa 0 mm - 61 W/m² -
1787952217 23.89° C 55% 1022.4 hPa 0 mm - 62 W/m² -
1787951914 23.89° C 54% 1022.7 hPa 0 mm - 69 W/m² -
1787951610 23.89° C 53% 1022.5 hPa 0 mm - 70 W/m² -
1787951305 23.89° C 53% 1022.5 hPa 0 mm - 63 W/m² -
1787951001 23.89° C 52% 1022.5 hPa 0 mm - 100 W/m² -
1787950696 24.44° C 50% 1022.5 hPa 0 mm - 66 W/m² -
1787950392 24.44° C 52% 1022.5 hPa 0 mm - 72 W/m² -
1787950088 23.89° C 49% 1022.5 hPa 0 mm - 139 W/m² -

* Rain latest hour (hover to see other rain measurements)
** Current wind speed in m/s (hover to see current wind gust speed)